SJP weather

San Jacinto Airport
Padilla, Cauca Department, Colombia

Public forecast

Using degrees Celsius for public forecast. Weather courtesy of forecast.io.

Closest aviation weather report (METAR) to San Jacinto Airport

Closest report is Alfonso Bonilla Aragon International Airport, 21.7 nm (40.2 km) N. Retrieved 2020/02/22 01:00 UTC (37 minutes ago):

SKCL 220100Z 18008KT 170V2130 9999 VCSH SCT020 BKN100 23/19A3001 NOSIG

Closest aviation forecast (TAF) to San Jacinto Airport

Closest forecast is Alfonso Bonilla Aragon International Airport, 21.7 nm (40.2 km) N. Retrieved 2020-02-22 00:40 UTC (57 minutes ago):

TAF SKCL 212230Z 2200/2224 18007KT 9999 SCT020 BKN090 BECMG 2202/2204 VRB03KT TEMPO 2205/2207 6000 DZRA SCT017 BKN090 TX29/2219Z TN19/2210Z